AirNav   Everest Fuels
 
 708 users online  

09W South Capitol Street Heliport
Washington, District of Columbia, USA

GOING TO WASHINGTON?


FAA INFORMATION EFFECTIVE 14 JULY 2022

Location

FAA Identifier: 09W
Lat/Long: 38-52-07.4040N 077-00-26.9130W
38-52.123400N 077-00.448550W
38.8687233,-77.0074758
(estimated)
Elevation: 10 ft. / 3.0 m (surveyed)
Variation: 09W (1985)
Time zone: UTC -4 (UTC -5 during Standard Time)
Zip code: 20398

Heliport Operations

Heliport use: Open to the public
Activation date: 04/1974
Control tower: no
ARTCC: WASHINGTON CENTER
FSS: LEESBURG FLIGHT SERVICE STATION
NOTAMs facility: DCA (NOTAM-D service available)
Attendance: MON-FRI 0700-1900, ALL SAT-SUN 1100-1900
OPEN HOLIDAYS UPON RESERVATION.
Wind indicator: lighted
Segmented circle: no
Lights: SS-SR
Beacon: white-green-yellow (heliport)
Operates sunset to sunrise.

Heliport Communications

CTAF/UNICOM: 123.05
WX ASOS at DCA (1.8 nm SW): 132.65 (703-418-1177)
WX AWOS-3 at CGS (8 nm NE): 121.225 (301-864-5497)
WX AWOS-3 at FME (17 nm NE): 123.925
WX AWOS-3PT at GAI (19 nm N): 128.275 (301-977-2971)

Nearby radio navigation aids

VOR radial/distance  VOR name  Freq  Var
DCAr077/1.5WASHINGTON VOR/DME111.0009W
ADWr309/7.6ANDREWS VORTAC113.1010W
OTTr318/15.7NOTTINGHAM VORTAC113.7010W
AMLr108/21.8ARMEL VOR/DME113.5008W
BALr233/24.3BALTIMORE VORTAC115.1011W
BRVr036/35.8BROOKE VORTAC114.5009W
FDKr160/(36.8)FREDERICK VOR109.0008W
EMIr190/37.6WESTMINSTER VORTAC117.9008W

 
NDB name  Hdg/Dist  Freq  Var  ID
OXONN020/6.233211WDCA -.. -.-. .-
GEORGETOWN133/6.632309WGTN --. - -.
DAVEE030/13.322309WDAA -.. .- .-
ELLICOTT214/27.337111WFND ..-. -. -..

Heliport Services

Fuel available: A
Airframe service: NONE
Powerplant service: NONE

Runway Information

Helipad H1

Dimensions: 60 x 60 ft. / 18 x 18 m
Surface: asphalt, in good condition
Runway edge lights: PERI
Latitude: 38-52.123400N
Longitude: 077-00.448550W
Elevation: 10.0 ft.
Traffic pattern: leftleft
Markings: , in fair condition
Approach lights: RLLS

Heliport Ownership and Management from official FAA records

Ownership: Privately-owned
Owner: SOUTH CAPITOL STREET HELIPORT, LLC
115 VALLEYVIEW RD
FAIRFIELD, CT 06824
Phone 203-856-6407
Manager: DON SCIMONELLI
1724 S CAPITAL ST SE
WASHINGTON, DC 20003
Phone 202-484-8616

Heliport Operational Statistics

Aircraft based on the field: 1
Helicopters: 1
    
Aircraft operations: avg 33/month *
50% transient general aviation
50% local general aviation
* for 12-month period ending 05 December 1997

Additional Remarks

A52-H1 75 FT LGTD BRIDGE 500 FT E; + 50 FT STACK 400 FT W; +40 FT BLDG 60 FT NE.
INGRESS & EGRESS ROUTES NE & SW OVER ANACOSTIA RIVER.
LARGE LOOSE GRAVEL SOUTH & WEST OF PAVEMENT.
FOR CD CTC POTOMAC APCH AT 866-599-3874.

Instrument Procedures

There are no published instrument procedures at 09W.

Some nearby airports with instrument procedures:

KDCA - Ronald Reagan Washington National Airport (2 nm SW)
KADW - Joint Base Andrews (7 nm SE)
KVKX - Potomac Airfield (8 nm S)
KCGS - College Park Airport (8 nm NE)
W32 - Washington Executive Airport/Hyde Field (8 nm SE)
W00 - Freeway Airport (12 nm E)
KDAA - Davison Army Airfield (12 nm SW)
2W5 - Maryland Airport (17 nm S)
KFME - Tipton Airport (17 nm NE)
KGAI - Montgomery County Airpark (19 nm N)
 
Loc | Ops | Rwys | IFR | FBO | Links
Com | Nav | Svcs | Stats | Notes
Area around 09W (South Capitol Street Heliport)
 
Road maps at: MapQuest Bing Google
 
Aerial photo
WARNING: Photo may not be current or correct
Aerial photo of 09W (South Capitol Street Heliport)
Photo courtesy of Steven Bussman
Bussman Aviation
Photo taken 29-Apr-2012
looking northeast.

Do you have a better or more recent aerial photo of South Capitol Street Heliport that you would like to share? If so, please send us your photo.

 
Sectional chart

 
Airport distance calculator
Flying to South Capitol Street Heliport? Find the distance to fly.

From to 09W

Sunrise and sunset
Times for 11-Aug-2022
 Local
(UTC-4)
 Zulu
(UTC)
Morning civil twilight05:5009:50
Sunrise06:1910:19
Sunset20:0700:07
Evening civil twilight20:3600:36

Current date and time
Zulu (UTC)  11-Aug-2022 05:08:01
Local (UTC-4)  11-Aug-2022 01:08:01
 
METAR
KDCA 
2nm SW 
110452Z 20007KT 10SM FEW060 BKN110 OVC170 23/22 A3001 RMK AO2 SLP161 T02280217 403440228 $
KADW 
7nm SE 
110456Z AUTO 26008KT 10SM BKN007 BKN027 BKN075 22/21 A2998 RMK AO2 LTG DSNT N CIG 007V075 BKN007 V FEW CIG 006 RWY01L SLP156 T02210214 403210218 $
KCGS 
8nm NE 
110440Z AUTO 20003KT 10SM SCT070 23/22 A3001 RMK AO2 T02300218
KDAA 
12nm SW 
110456Z AUTO 00000KT 10SM OVC007 23/22 A2999 RMK AO2 SLP158 T02250218 403430220 $
KFME 
17nm NE 
110440Z AUTO 24003KT 5SM SCT004 BKN060 BKN080 21/21 A3003 RMK AO1
KGAI 
19nm N 
110456Z AUTO OVC003 22/22 A3002 RMK AO2 LTG DSNT NE SLP174 T02220217 403390211 PWINO $
TAF
KDCA 
2nm SW 
110137Z 1102/1206 23006KT P6SM -SHRA SCT050 OVC100 FM110400 24003KT P6SM SCT040 OVC100 FM111300 31005KT P6SM BKN040 FM112000 31007KT P6SM SCT050
KADW 
7nm SE 
110100Z 1101/1207 VRB06KT 9999 -RA FEW004 SCT008 BKN120 QNH2999INS BECMG 1103/1104 VRB06KT 9000 -RA BR SCT006 BKN050 BKN120 QNH2996INS BECMG 1111/1112 32012KT 9999 NSW FEW030 SCT200 QNH2996INS BECMG 1203/1204 32010KT 9999 BKN050 QNH2995INS TX29/1120Z TN20/1114Z
KDAA 
12nm SW 
102000Z 1020/1202 VRB06KT 9000 -SHRA VCTS SCT035CB BKN050 BKN110 QNH2996INS TEMPO 1020/1101 27025G35KT 1600 +TSRA BKN030CB OVC065 BECMG 1100/1101 29009KT 8000 -SHRA VCTS SCT025CB BKN040 BKN080 QNH2998INS BECMG 1105/1106 VRB06KT 8000 -SHRA FEW025 BKN040 OVC080 QNH2996INS BECMG 1111/1112 VRB06KT 9999 NSW FEW030 BKN045 OVC065 QNH2995INS BECMG 1117/1118 VRB06KT 9999 SKC QNH2988INS TX31/1021Z TN21/1108Z LAST NO AMDS AFT 1101 NEXT 1112
NOTAMs
Click for the latest NOTAMs
NOTAMs are issued by the DoD/FAA and will open in a separate window not controlled by AirNav.

 

 
 

FBO, Fuel Providers, and Aircraft Ground Support

  
 Business Name 
 
 Contact 
 
 Services / Description 
 
Fuel Prices
 
Comments
  
South Capitol Street Heliport FBO 202-484-8616
202-527-8687
[email]

Like us on facebook
Airport management, Aviation fuel, Aircraft parking (ramp or tiedown), Hangars, Hangar leasing / sales, Passenger terminal and lounge, ...
 
U.S. Government AIR Card   Titan Contract Fuel  
 
More info about South Capitol Street Heliport FBO
Titan
Jet A
AS $8.04 
 Updated 05-Jan-2022
 
   write
AS=Assisted/Self Service
Update Fuel Prices
 

Would you like to see your business listed on this page?

 If your business provides an interesting product or service to pilots, flight crews, aircraft, or users of the South Capitol Street Heliport, you should consider listing it here.  To start the listing process, click on the button below
 
Add a business
 

Other Pages about South Capitol Street Heliport

Update a link
 
Copyright © AirNav, LLC. All rights reserved. Privacy Policy  Contact